createdAt,value
2018-02-03T00:05:37.424Z,2.74
2018-02-03T02:34:33.729Z,2.56
2018-02-03T03:34:27.818Z,2.52
2018-02-03T03:37:04.114Z,2.51
2018-02-03T03:40:53.132Z,2.52
2018-02-03T17:57:14.415Z,1.67
2018-02-03T18:00:13.366Z,1.65
2018-02-03T18:03:09.832Z,1.61
2018-02-03T18:05:46.958Z,1.60
2018-02-03T18:08:14.732Z,1.53
2018-02-03T18:10:44.782Z,1.51
2018-02-03T18:13:12.718Z,1.43
2018-02-03T18:15:40.454Z,1.45
2018-02-03T18:18:08.284Z,1.47
2018-02-03T18:20:36.134Z,1.46
2018-02-03T18:23:03.900Z,1.44
2018-02-03T18:25:31.654Z,1.44
2018-02-03T18:27:59.595Z,1.42
2018-02-03T18:30:28.309Z,1.37
2018-02-03T18:32:56.107Z,1.38
2018-02-03T18:35:23.925Z,1.40
2018-02-03T18:37:51.676Z,1.37
2018-02-03T18:40:19.707Z,1.41
2018-02-03T18:42:47.651Z,1.37
2018-02-03T18:48:39.386Z,1.38
2018-02-03T18:51:08.985Z,1.32
2018-02-03T18:53:51.033Z,1.28
2018-02-03T18:57:12.663Z,1.29
2018-02-03T18:59:51.511Z,1.30
2018-02-03T19:02:49.624Z,1.28
2018-02-03T19:05:29.115Z,1.28
2018-02-03T19:07:56.938Z,1.30
2018-02-03T19:10:24.831Z,1.29
2018-02-03T19:12:53.433Z,1.27
2018-02-03T19:15:25.921Z,1.28
2018-02-03T19:17:56.575Z,1.26
2018-02-03T19:20:28.016Z,1.27
2018-02-03T19:22:56.370Z,1.26
2018-02-03T19:25:24.208Z,1.26
2018-02-03T19:27:53.322Z,1.28
2018-02-03T19:30:21.154Z,1.27
2018-02-03T19:32:48.965Z,1.26
2018-02-03T19:35:17.857Z,1.19
2018-02-03T19:37:45.727Z,1.14
2018-02-03T19:40:19.181Z,1.10
2018-02-03T19:42:46.957Z,1.09
2018-02-03T19:45:16.907Z,1.10
2018-02-03T19:47:44.684Z,1.07
2018-02-03T19:50:13.073Z,1.06
2018-02-03T19:52:42.096Z,1.05
2018-02-03T19:55:09.814Z,1.03
2018-02-03T19:57:38.336Z,1.06
2018-02-03T20:00:06.027Z,1.03
2018-02-03T20:02:33.803Z,1.01
2018-02-03T20:05:01.659Z,1.02
2018-02-03T20:07:29.395Z,0.97
2018-02-03T20:09:57.185Z,0.94
2018-02-03T20:12:24.925Z,0.95
2018-02-03T20:14:52.818Z,0.93
2018-02-03T20:17:20.975Z,0.96
2018-02-03T20:19:49.394Z,0.95
2018-02-03T20:22:17.759Z,0.92
2018-02-03T20:24:45.442Z,0.94
2018-02-03T20:27:13.224Z,1.01
2018-02-03T20:29:41.015Z,1.01
2018-02-03T20:32:08.725Z,0.99
2018-02-03T20:34:36.484Z,1.01
2018-02-03T20:37:04.179Z,1.04
2018-02-03T20:39:31.860Z,0.97
2018-02-03T20:41:59.520Z,0.99
2018-02-03T20:44:27.282Z,0.98
2018-02-03T20:46:54.945Z,0.98
2018-02-03T20:49:22.590Z,1.00
2018-02-03T20:51:50.667Z,1.02
2018-02-03T20:54:18.365Z,0.98
2018-02-03T20:56:45.994Z,0.92
2018-02-03T20:59:13.708Z,0.90
2018-02-03T21:01:41.447Z,0.95
2018-02-03T21:04:09.661Z,0.94
2018-02-03T21:06:37.446Z,0.89
2018-02-03T21:09:05.179Z,0.84
2018-02-03T21:11:32.958Z,0.82
2018-02-03T21:14:00.652Z,0.81
2018-02-03T21:16:28.516Z,0.85
2018-02-03T21:18:56.557Z,0.88
2018-02-03T21:21:24.204Z,0.86
2018-02-03T21:23:51.854Z,0.85
2018-02-03T21:26:19.572Z,0.85
2018-02-03T21:28:47.238Z,0.87
2018-02-03T21:31:14.925Z,0.90
2018-02-03T21:33:43.199Z,0.88
2018-02-03T21:36:11.418Z,0.92
2018-02-03T21:38:39.363Z,0.84
2018-02-03T21:41:07.697Z,0.86
2018-02-03T21:43:36.089Z,0.88
2018-02-03T21:46:04.423Z,0.89
2018-02-03T21:48:32.067Z,0.87
2018-02-03T21:51:00.129Z,0.88
2018-02-03T21:53:29.459Z,0.84
2018-02-03T21:55:57.244Z,0.80
2018-02-03T21:58:24.969Z,0.76
2018-02-03T22:00:52.683Z,0.78
2018-02-03T22:03:20.434Z,0.81
2018-02-03T22:05:48.212Z,0.77
2018-02-03T22:08:15.985Z,0.76
2018-02-03T22:10:44.740Z,0.71
2018-02-03T22:13:12.479Z,0.73
2018-02-03T22:15:40.175Z,0.73
2018-02-03T22:18:08.458Z,0.71
2018-02-03T22:20:36.528Z,0.71
2018-02-03T22:23:04.596Z,0.76
2018-02-03T22:25:32.922Z,0.75
2018-02-03T22:28:00.673Z,0.76
2018-02-03T22:30:28.410Z,0.74
2018-02-03T22:32:56.092Z,0.74
2018-02-03T22:35:23.864Z,0.79
2018-02-03T22:37:51.618Z,0.80
2018-02-03T22:40:19.341Z,0.81
2018-02-03T22:42:47.433Z,0.81
2018-02-03T22:45:15.175Z,0.85
2018-02-03T22:47:42.904Z,0.85
2018-02-03T22:50:10.721Z,0.87
2018-02-03T22:52:38.414Z,0.85
2018-02-03T22:55:06.074Z,0.85
2018-02-03T22:57:33.761Z,0.87
2018-02-03T23:00:01.723Z,0.87
2018-02-03T23:02:35.143Z,0.87
2018-02-03T23:05:02.862Z,0.91
2018-02-03T23:07:30.630Z,0.92
2018-02-03T23:09:58.681Z,0.92
2018-02-03T23:12:26.368Z,0.95
2018-02-03T23:14:54.064Z,0.94
2018-02-03T23:17:21.795Z,0.95
2018-02-03T23:19:49.465Z,0.99
2018-02-03T23:22:17.274Z,1.00
2018-02-03T23:24:45.026Z,1.00
2018-02-03T23:27:12.683Z,1.02
2018-02-03T23:29:40.359Z,1.02
2018-02-03T23:32:08.081Z,1.01
2018-02-03T23:34:35.732Z,1.02
2018-02-03T23:42:07.134Z,1.02
2018-02-03T23:44:35.265Z,1.04
2018-02-03T23:47:02.903Z,1.03
2018-02-03T23:49:30.580Z,1.02
2018-02-03T23:51:58.193Z,1.03
2018-02-03T23:54:26.233Z,1.02
2018-02-03T23:56:53.832Z,1.01
2018-02-03T23:59:21.512Z,0.98
